Time;durP1;ratioP1;P1;durP2;ratioP2;P2;SDS_P1;SDS_P2;PMS_P1;PMS_P2;Temp;Humidity;BMP_temperature;BMP_pressure;BME280_temperature;BME280_humidity;BME280_pressure;Samples;Min_cycle;Max_cycle;Signal;HPM_P1;HPM_P2
2021/04/24 00:01:00;;;;;;;10.38;3.97;;;9.10;63.70;;;8.91;53.06;101713.28;4999562;28;20058;-82
2021/04/24 00:03:26;;;;;;;10.75;3.97;;;9.00;63.60;;;8.88;53.54;101720.84;4998480;28;20049;-82
2021/04/24 00:05:53;;;;;;;9.02;3.72;;;9.00;63.80;;;8.84;53.62;101714.84;4998541;28;20046;-82
2021/04/24 00:08:21;;;;;;;8.40;4.05;;;8.90;64.10;;;8.80;53.89;101716.97;4999066;28;20074;-83
2021/04/24 00:10:49;;;;;;;14.70;4.47;;;8.90;64.60;;;8.72;54.10;101716.84;4998593;28;20693;-83
2021/04/24 00:13:17;;;;;;;10.88;3.42;;;8.90;64.80;;;8.74;53.65;101716.72;4997079;28;20058;-82
2021/04/24 00:15:44;;;;;;;16.35;3.80;;;8.80;64.30;;;8.67;53.27;101721.00;4997671;28;20100;-82
2021/04/24 00:18:12;;;;;;;11.52;3.05;;;8.80;64.00;;;8.77;52.72;101719.13;4997619;28;20069;-83
2021/04/24 00:20:40;;;;;;;10.63;3.13;;;8.70;63.20;;;8.78;51.86;101726.28;4997958;28;20077;-82
2021/04/24 00:23:07;;;;;;;8.38;3.20;;;8.70;62.60;;;8.82;51.73;101722.28;4996710;28;20081;-83
2021/04/24 00:25:35;;;;;;;10.93;2.97;;;8.70;62.00;;;8.77;51.87;101719.97;4997357;28;20058;-83
2021/04/24 00:28:02;;;;;;;8.68;2.97;;;8.70;62.70;;;8.68;52.75;101722.69;4995663;28;20084;-83
2021/04/24 00:30:29;;;;;;;11.57;3.53;;;8.70;63.20;;;8.61;52.33;101720.56;4997777;28;20123;-82
2021/04/24 00:32:55;;;;;;;9.52;3.33;;;8.70;62.60;;;8.56;52.84;101711.97;4997709;28;20561;-82
2021/04/24 00:35:23;;;;;;;9.13;2.92;;;8.60;63.30;;;8.54;52.67;101719.41;4997911;28;20065;-82
2021/04/24 00:37:50;;;;;;;6.30;2.53;;;8.60;63.40;;;8.61;51.84;101709.69;4997901;28;20049;-82
2021/04/24 00:40:19;;;;;;;10.95;3.33;;;8.60;62.90;;;8.64;52.44;101713.13;4998272;28;20086;-82
2021/04/24 00:42:48;;;;;;;7.10;3.13;;;8.60;63.10;;;8.51;52.25;101719.69;4997322;28;20066;-83
2021/04/24 00:45:20;;;;;;;6.95;2.70;;;8.50;63.70;;;8.55;52.08;101704.84;4998281;28;20061;-82
2021/04/24 00:47:47;;;;;;;;;;;8.50;62.20;;;8.54;51.09;101708.53;4998498;28;20074;-83
2021/04/24 00:50:18;;;;;;;8.00;2.67;;;8.50;61.90;;;8.50;51.55;101707.13;4997841;28;20002;-82
2021/04/24 00:52:45;;;;;;;;;;;8.50;62.20;;;8.48;51.70;101709.13;4996752;28;20042;-83
2021/04/24 00:55:13;;;;;;;8.82;2.40;;;8.50;63.10;;;8.47;51.38;101710.09;4997872;28;19922;-82
2021/04/24 00:57:41;;;;;;;9.13;2.92;;;8.50;62.30;;;8.45;51.18;101703.97;4998063;28;20054;-83
2021/04/24 01:00:14;;;;;;;7.75;2.70;;;8.40;62.40;;;8.41;51.80;101703.41;4996906;28;20049;-82
2021/04/24 01:02:41;;;;;;;9.93;2.83;;;8.40;62.60;;;8.36;51.70;101702.94;4996930;28;20058;-83
2021/04/24 01:05:11;;;;;;;8.68;2.95;;;8.40;62.50;;;8.32;51.32;101703.34;4996093;28;20584;-82
2021/04/24 01:07:38;;;;;;;9.48;2.78;;;8.40;62.50;;;8.37;50.88;101698.34;4997789;28;20073;-82
2021/04/24 01:10:07;;;;;;;7.75;2.20;;;8.40;61.60;;;8.46;49.77;101708.41;4998168;28;20050;-82
2021/04/24 01:12:34;;;;;;;6.43;2.28;;;8.30;60.80;;;8.38;50.80;101698.22;4996420;28;20136;-82
2021/04/24 01:15:01;;;;;;;8.48;2.55;;;8.30;61.60;;;8.40;50.17;101700.81;4997255;28;20070;-83
2021/04/24 01:17:28;;;;;;;7.45;2.63;;;8.20;61.00;;;8.34;51.00;101696.81;4998196;28;20047;-82
2021/04/24 01:19:55;;;;;;;5.75;2.35;;;8.30;61.80;;;8.27;51.41;101700.22;4998388;28;20081;-82
2021/04/24 01:22:23;;;;;;;10.52;2.50;;;8.30;61.60;;;8.29;50.72;101703.63;4997052;28;20070;-83
2021/04/24 01:24:50;;;;;;;8.52;2.70;;;8.20;61.40;;;8.26;51.18;101695.78;4997295;28;20635;-82
2021/04/24 01:27:17;;;;;;;7.68;2.53;;;8.20;61.70;;;8.26;50.85;101690.34;4996698;28;20146;-82
2021/04/24 01:29:44;;;;;;;9.77;2.95;;;8.30;61.30;;;8.23;51.97;101694.22;4998095;28;20109;-83
2021/04/24 01:32:11;;;;;;;7.70;2.53;;;8.20;61.80;;;8.18;51.14;101689.19;4996848;28;20060;-82
2021/04/24 01:34:38;;;;;;;6.63;2.88;;;8.10;62.20;;;8.19;51.50;101692.78;4997596;28;20054;-82
2021/04/24 01:37:05;;;;;;;7.97;2.40;;;8.10;62.60;;;8.11;51.97;101679.03;4997278;28;20046;-82
2021/04/24 01:39:33;;;;;;;9.18;2.63;;;8.20;62.30;;;8.16;51.32;101677.63;4996717;28;20078;-82
2021/04/24 01:41:59;;;;;;;8.98;2.97;;;8.10;62.40;;;8.16;51.21;101685.75;4997103;28;20049;-82
2021/04/24 01:44:27;;;;;;;8.63;2.40;;;8.00;62.60;;;8.05;52.10;101680.47;4994772;28;20057;-82
2021/04/24 01:46:54;;;;;;;8.40;3.15;;;8.00;63.40;;;7.97;53.11;101677.59;4989228;28;20044;-82
2021/04/24 01:49:20;;;;;;;9.30;2.65;;;7.90;64.00;;;7.90;53.40;101676.44;4996035;28;20058;-82
2021/04/24 01:51:48;;;;;;;8.38;2.80;;;7.90;64.80;;;7.74;53.94;101682.38;4997059;28;20046;-83
2021/04/24 01:54:15;;;;;;;8.15;2.70;;;7.80;65.10;;;7.72;53.58;101685.22;4996520;28;20474;-82
2021/04/24 01:56:48;;;;;;;8.73;2.42;;;7.80;65.20;;;7.71;54.34;101680.81;4997392;28;20050;-82
2021/04/24 01:59:16;;;;;;;4.88;2.22;;;7.70;65.50;;;7.69;53.79;101688.22;4997920;28;20057;-83
2021/04/24 02:01:47;;;;;;;6.35;2.65;;;7.60;66.20;;;7.61;55.14;101693.44;4997563;28;20794;-82
2021/04/24 02:04:15;;;;;;;6.15;2.80;;;7.60;66.70;;;7.55;54.50;101684.00;4996306;28;20050;-83
2021/04/24 02:06:41;;;;;;;7.07;2.53;;;7.50;66.90;;;7.54;54.67;101687.72;4996437;28;20048;-83
2021/04/24 02:09:11;;;;;;;8.85;2.72;;;7.40;67.00;;;7.52;54.61;101694.25;4995573;28;20811;-83
2021/04/24 02:11:56;;;;;;;8.13;2.53;;;7.40;67.20;;;7.51;54.62;101697.97;4996004;28;20050;-83
2021/04/24 02:14:24;;;;;;;8.98;2.88;;;7.30;67.40;;;7.46;55.23;101689.38;4996540;28;20116;-82
2021/04/24 02:16:50;;;;;;;7.75;2.63;;;7.30;67.90;;;7.42;55.18;101695.09;4997015;28;20103;-83
2021/04/24 02:19:17;;;;;;;7.13;2.63;;;7.20;68.20;;;7.31;55.58;101692.47;4997677;28;20094;-83
2021/04/24 02:21:44;;;;;;;9.43;2.58;;;7.20;68.30;;;7.29;55.64;101689.03;4996406;28;20042;-82
2021/04/24 02:24:11;;;;;;;6.88;2.55;;;7.10;68.50;;;7.25;56.13;101690.28;4996499;28;20110;-82
2021/04/24 02:26:38;;;;;;;6.72;2.35;;;7.10;68.60;;;7.24;56.15;101683.16;4997389;28;20128;-83
2021/04/24 02:29:05;;;;;;;7.43;2.42;;;7.10;68.50;;;7.20;56.07;101689.84;4996604;28;20061;-82
2021/04/24 02:31:32;;;;;;;8.07;2.47;;;7.00;68.70;;;7.18;56.29;101699.94;4997715;28;20065;-83
2021/04/24 02:33:59;;;;;;;8.13;2.63;;;7.00;69.00;;;7.14;56.77;101690.34;4996420;28;20050;-82
2021/04/24 02:36:26;;;;;;;6.20;2.33;;;7.00;69.20;;;7.11;56.43;101691.50;4997197;28;20106;-82
2021/04/24 02:38:53;;;;;;;9.38;2.72;;;7.00;69.40;;;7.04;56.73;101696.59;4996892;28;20049;-82
2021/04/24 02:41:20;;;;;;;10.25;2.95;;;6.90;69.60;;;7.03;56.41;101694.00;4995947;28;20442;-82
2021/04/24 02:43:47;;;;;;;9.13;3.45;;;6.90;69.90;;;7.01;57.04;101688.72;4995986;28;20126;-82
2021/04/24 02:46:14;;;;;;;8.85;3.10;;;6.80;69.90;;;6.95;56.54;101691.09;4995954;28;20086;-82
2021/04/24 02:48:42;;;;;;;7.25;3.03;;;6.80;70.00;;;6.94;56.91;101684.81;4995904;28;20058;-82
2021/04/24 02:51:08;;;;;;;6.45;2.72;;;6.80;70.00;;;6.93;57.28;101685.81;4995196;28;20105;-82
2021/04/24 02:53:35;;;;;;;8.57;2.83;;;6.70;70.30;;;6.93;56.99;101684.94;4995596;28;20506;-82
2021/04/24 02:56:02;;;;;;;5.18;2.67;;;6.70;70.50;;;6.89;57.06;101694.31;4997151;28;20502;-82
2021/04/24 02:58:29;;;;;;;8.55;2.97;;;6.70;70.70;;;6.85;57.59;101696.44;4995786;28;20170;-82
2021/04/24 03:00:56;;;;;;;8.32;3.20;;;6.60;71.10;;;6.81;58.14;101697.69;4996624;28;20764;-82
2021/04/24 03:03:22;;;;;;;7.80;3.45;;;6.60;71.40;;;6.75;57.96;101695.50;4995927;28;20042;-82
2021/04/24 03:05:50;;;;;;;8.00;2.90;;;6.50;71.70;;;6.74;58.32;101700.06;4996357;28;20077;-82
2021/04/24 03:08:17;;;;;;;7.78;2.97;;;6.50;71.90;;;6.68;57.95;101699.72;4996196;28;20057;-83
2021/04/24 03:10:44;;;;;;;8.50;2.88;;;6.60;71.90;;;6.65;58.18;101696.28;4996970;28;20049;-82
2021/04/24 03:13:12;;;;;;;7.93;3.13;;;6.40;71.80;;;6.64;58.37;101701.81;4995533;28;20048;-83
2021/04/24 03:15:39;;;;;;;8.50;2.88;;;6.40;72.10;;;6.60;58.92;101698.50;4997672;28;20489;-82
2021/04/24 03:18:07;;;;;;;7.40;2.72;;;6.40;72.10;;;6.57;58.64;101692.53;4999748;28;20466;-82
2021/04/24 03:20:34;;;;;;;5.63;2.80;;;6.30;72.10;;;6.57;58.71;101693.38;5000119;28;20043;-83
2021/04/24 03:23:04;;;;;;;6.95;2.55;;;6.30;72.40;;;6.58;58.66;101703.19;4999059;28;20046;-82
2021/04/24 03:25:30;;;;;;;8.75;3.10;;;6.30;72.70;;;6.53;58.66;101694.63;5000280;28;20100;-82
2021/04/24 03:27:57;;;;;;;8.75;3.20;;;6.30;72.70;;;6.51;59.07;101699.31;5000012;28;20681;-82
2021/04/24 03:30:25;;;;;;;7.55;3.40;;;6.30;72.90;;;6.48;58.87;101698.72;4999855;28;20046;-82
2021/04/24 03:32:51;;;;;;;9.02;3.03;;;6.20;72.70;;;6.41;59.13;101703.75;4996451;28;20050;-82
2021/04/24 03:35:18;;;;;;;8.93;3.13;;;6.20;72.70;;;6.41;58.89;101695.66;4999413;28;20046;-82
2021/04/24 03:37:45;;;;;;;7.03;2.95;;;6.20;72.80;;;6.39;59.27;101690.34;4999826;28;20046;-83
2021/04/24 03:40:14;;;;;;;8.80;3.58;;;6.20;73.10;;;6.37;59.54;101702.31;4999570;28;20053;-82
2021/04/24 03:42:41;;;;;;;9.18;3.60;;;6.10;73.20;;;6.33;59.17;101700.84;4999181;28;20051;-82
2021/04/24 03:45:18;;;;;;;9.20;3.10;;;6.10;72.80;;;6.34;59.65;101700.72;4999810;28;20073;-83
2021/04/24 03:47:46;;;;;;;7.22;2.90;;;6.10;73.00;;;6.34;59.41;101694.44;4999142;28;20058;-82
2021/04/24 03:50:14;;;;;;;8.30;3.22;;;6.10;73.20;;;6.32;59.29;101704.53;4998965;28;20057;-82
2021/04/24 03:52:41;;;;;;;8.52;3.25;;;6.10;73.20;;;6.30;59.80;101703.78;4998118;28;20034;-82
2021/04/24 03:55:09;;;;;;;11.82;3.00;;;6.10;73.20;;;6.29;59.46;101711.06;4999158;28;20124;-83
2021/04/24 03:57:37;;;;;;;7.28;3.30;;;6.10;73.30;;;6.26;59.83;101712.19;4999224;28;20407;-82
2021/04/24 04:00:06;;;;;;;7.68;3.38;;;6.00;73.10;;;6.24;59.50;101705.16;4999200;28;20054;-82
2021/04/24 04:02:45;;;;;;;7.18;3.10;;;6.00;73.40;;;6.23;60.06;101701.59;4997908;28;20065;-83
2021/04/24 04:05:14;;;;;;;11.23;4.03;;;6.00;73.60;;;6.21;59.94;101708.97;4999045;28;20522;-83
2021/04/24 04:07:41;;;;;;;8.65;3.47;;;6.00;73.70;;;6.18;60.20;101709.22;4998834;28;20066;-82
2021/04/24 04:10:10;;;;;;;10.02;3.30;;;6.00;73.90;;;6.20;60.14;101715.34;4999189;28;20050;-82
2021/04/24 04:12:38;;;;;;;6.57;3.08;;;6.00;74.20;;;6.21;60.28;101706.28;4999220;28;20049;-82
2021/04/24 04:15:06;;;;;;;9.30;3.50;;;6.00;74.20;;;6.21;60.29;101708.13;4998872;28;20620;-82
2021/04/24 04:17:33;;;;;;;9.35;3.50;;;6.00;74.10;;;6.18;59.95;101716.47;4999383;28;20061;-82
2021/04/24 04:20:00;;;;;;;7.82;3.30;;;5.90;74.00;;;6.09;60.54;101709.97;4997717;28;20082;-83
2021/04/24 04:22:27;;;;;;;8.00;3.33;;;6.00;74.10;;;6.11;60.83;101713.44;4999235;28;20520;-82
2021/04/24 04:24:54;;;;;;;6.93;3.20;;;6.00;74.20;;;6.08;60.84;101708.28;4998057;28;20050;-82
2021/04/24 04:27:20;;;;;;;7.45;3.38;;;6.00;74.00;;;6.05;60.83;101714.81;4997800;28;20582;-82
2021/04/24 04:29:48;;;;;;;12.98;3.75;;;6.00;74.00;;;6.05;61.17;101713.91;4998734;28;20608;-82
2021/04/24 04:32:15;;;;;;;9.45;3.90;;;6.00;74.30;;;6.07;61.24;101722.75;4998638;28;20038;-82
2021/04/24 04:34:41;;;;;;;8.95;3.30;;;6.00;74.70;;;6.07;61.51;101712.84;4997987;28;20050;-83
2021/04/24 04:37:08;;;;;;;7.30;3.28;;;6.00;74.80;;;6.04;61.22;101707.66;4998664;28;20804;-82
2021/04/24 04:39:35;;;;;;;9.18;3.95;;;6.00;74.80;;;6.03;61.17;101713.19;4999097;28;20050;-82
2021/04/24 04:42:01;;;;;;;9.48;3.92;;;6.10;74.80;;;6.08;61.09;101713.69;4998130;28;20106;-82
2021/04/24 04:44:28;;;;;;;9.63;4.13;;;6.00;74.70;;;6.10;61.07;101716.25;4997066;28;20412;-82
2021/04/24 04:46:56;;;;;;;9.45;3.38;;;6.00;74.70;;;6.09;61.48;101709.97;4997882;28;20185;-82
2021/04/24 04:49:23;;;;;;;9.57;3.95;;;6.00;74.80;;;6.13;61.47;101716.88;4998955;28;20070;-82
2021/04/24 04:51:49;;;;;;;10.10;4.53;;;6.10;75.20;;;6.09;61.42;101709.13;4997738;28;20050;-82
2021/04/24 04:54:16;;;;;;;11.07;4.35;;;6.10;75.10;;;6.12;61.67;101712.44;4997878;28;20065;-82
2021/04/24 04:56:43;;;;;;;9.75;3.88;;;6.10;75.10;;;6.14;61.89;101707.75;4998108;28;20246;-82
2021/04/24 04:59:09;;;;;;;10.43;4.00;;;6.10;75.10;;;6.16;62.08;101713.06;4997993;28;20503;-82
2021/04/24 05:01:36;;;;;;;10.23;4.20;;;6.20;75.30;;;6.20;62.33;101709.09;4998407;28;20129;-83
2021/04/24 05:04:05;;;;;;;9.73;3.80;;;6.20;76.30;;;6.21;62.31;101708.97;4996580;28;20078;-83
2021/04/24 05:06:31;;;;;;;8.85;4.30;;;6.30;75.50;;;6.25;62.74;101715.00;4996882;28;20415;-83
2021/04/24 05:08:58;;;;;;;9.98;4.07;;;6.30;75.80;;;6.29;62.62;101704.78;4996794;28;20050;-83
2021/04/24 05:11:25;;;;;;;10.80;4.80;;;6.40;75.70;;;6.33;62.63;101711.66;4996624;28;20066;-83
2021/04/24 05:13:51;;;;;;;9.18;4.82;;;6.50;75.80;;;6.36;62.02;101714.97;4995845;28;20049;-82
2021/04/24 05:16:18;;;;;;;15.02;5.32;;;6.60;75.40;;;6.42;62.55;101710.91;4996926;28;20129;-82
2021/04/24 05:18:45;;;;;;;13.23;5.30;;;6.70;74.90;;;6.47;62.11;101714.06;4996404;28;20073;-83
2021/04/24 05:21:13;;;;;;;15.68;5.22;;;6.70;74.70;;;6.50;62.20;101716.50;4996001;28;20423;-83
2021/04/24 05:23:40;;;;;;;13.90;5.45;;;6.80;74.50;;;6.54;62.10;101709.84;4994984;28;20081;-83
2021/04/24 05:26:06;;;;;;;13.55;5.93;;;6.90;74.50;;;6.55;62.12;101711.59;4994365;28;20073;-81
2021/04/24 05:28:33;;;;;;;12.55;5.50;;;6.90;74.10;;;6.56;62.16;101717.84;4995939;28;20050;-82
2021/04/24 05:31:00;;;;;;;13.52;5.22;;;7.00;74.10;;;6.64;62.18;101720.75;4995004;28;20078;-81
2021/04/24 05:33:26;;;;;;;14.60;5.40;;;7.10;73.80;;;6.65;61.84;101719.78;4994813;28;20074;-83
2021/04/24 05:35:53;;;;;;;10.82;5.38;;;7.20;73.70;;;6.73;61.84;101719.13;4994608;28;20522;-82
2021/04/24 05:38:21;;;;;;;14.88;5.13;;;7.30;73.30;;;6.76;61.93;101718.84;4995600;28;20053;-82
2021/04/24 05:40:48;;;;;;;12.88;5.68;;;7.30;73.60;;;6.79;62.37;101724.00;4996774;28;20561;-82
2021/04/24 05:43:14;;;;;;;13.90;5.93;;;7.30;73.50;;;6.82;61.70;101721.91;4994837;28;20061;-83
2021/04/24 05:45:41;;;;;;;18.08;6.05;;;7.40;72.90;;;6.85;61.47;101712.66;4995640;28;20515;-82
2021/04/24 05:48:08;;;;;;;12.13;6.00;;;7.50;72.40;;;6.94;61.59;101716.44;4995838;28;20050;-82
2021/04/24 05:50:35;;;;;;;15.77;6.75;;;7.60;72.10;;;7.02;61.09;101714.78;4995917;28;20073;-83
2021/04/24 05:53:02;;;;;;;18.23;6.13;;;7.60;71.60;;;7.03;60.73;101721.94;4994718;28;20043;-83
2021/04/24 05:55:30;;;;;;;14.27;6.10;;;7.70;71.40;;;7.06;61.43;101715.38;4995577;28;20042;-83
2021/04/24 05:57:56;;;;;;;15.00;6.00;;;7.80;71.30;;;7.09;61.09;101725.09;4995884;28;20176;-83
2021/04/24 06:00:24;;;;;;;15.55;5.45;;;7.90;71.00;;;7.16;60.77;101731.69;4995138;28;20054;-83
2021/04/24 06:02:52;;;;;;;12.73;5.70;;;8.00;70.60;;;7.19;60.70;101726.00;4993692;28;20126;-84
2021/04/24 06:05:19;;;;;;;14.07;5.55;;;8.10;70.40;;;7.20;60.59;101727.75;4995039;28;20081;-82
2021/04/24 06:07:46;;;;;;;16.00;6.20;;;8.10;70.20;;;7.26;60.55;101732.63;4994909;28;20073;-83
2021/04/24 06:10:16;;;;;;;17.23;6.65;;;8.20;70.00;;;7.35;59.86;101726.41;4995007;28;20065;-83
2021/04/24 06:12:46;;;;;;;15.77;6.38;;;8.20;69.20;;;7.39;60.08;101730.56;4994860;28;20077;-82
2021/04/24 06:15:15;;;;;;;16.25;5.97;;;8.20;69.50;;;7.46;60.22;101732.72;4993711;28;20042;-83
2021/04/24 06:17:42;;;;;;;16.95;6.85;;;8.30;69.70;;;7.52;60.59;101726.75;4993477;28;20046;-82
2021/04/24 06:20:11;;;;;;;17.38;6.45;;;8.40;69.30;;;7.56;60.72;101728.25;4995092;28;20077;-83
2021/04/24 06:22:39;;;;;;;14.55;6.10;;;8.50;69.30;;;7.61;60.18;101724.09;4993868;28;20054;-82
2021/04/24 06:25:09;;;;;;;13.27;6.05;;;8.50;69.30;;;7.69;60.52;101728.88;4993505;28;20077;-83
2021/04/24 06:27:36;;;;;;;15.30;6.47;;;8.60;69.30;;;7.72;59.49;101723.16;4993929;28;20046;-83
2021/04/24 06:30:07;;;;;;;17.17;6.45;;;8.70;69.00;;;7.78;60.13;101728.03;4995128;28;20125;-83
2021/04/24 06:32:34;;;;;;;16.90;6.87;;;8.70;69.30;;;7.82;59.53;101723.19;4995754;28;20602;-84
2021/04/24 06:35:00;;;;;;;16.90;6.45;;;8.80;69.20;;;7.87;60.75;101725.50;4996599;28;20662;-84
2021/04/24 06:37:27;;;;;;;19.25;6.13;;;8.80;69.40;;;7.93;59.72;101724.97;4996937;28;20048;-84
2021/04/24 06:39:54;;;;;;;22.48;7.10;;;8.90;69.50;;;7.99;60.23;101717.13;4997222;28;20097;-83
2021/04/24 06:42:21;;;;;;;19.63;6.65;;;9.00;69.50;;;8.07;60.59;101715.56;4996245;28;20046;-84
2021/04/24 06:44:47;;;;;;;15.98;7.13;;;9.10;69.20;;;8.14;60.22;101700.47;4995789;28;20125;-83
2021/04/24 06:47:15;;;;;;;13.52;6.15;;;9.20;69.10;;;8.22;60.89;101711.47;4996378;28;20050;-84
2021/04/24 06:49:42;;;;;;;19.33;6.75;;;9.30;68.90;;;8.25;60.74;101715.78;4997467;28;20042;-84
2021/04/24 06:52:08;;;;;;;16.02;6.75;;;9.40;68.80;;;8.24;60.20;101709.47;4999951;28;20127;-84
2021/04/24 06:54:36;;;;;;;18.98;6.15;;;9.40;68.60;;;8.28;60.25;101710.94;4998556;28;20038;-83
2021/04/24 06:57:04;;;;;;;16.42;7.30;;;9.50;68.50;;;8.29;59.92;101709.91;4999570;28;20054;-83
2021/04/24 06:59:31;;;;;;;16.08;6.57;;;9.50;68.50;;;8.34;60.14;101712.19;4998170;28;20076;-83
2021/04/24 07:01:58;;;;;;;19.45;7.38;;;9.50;68.60;;;8.38;61.04;101703.66;4997989;28;20072;-81
2021/04/24 07:04:25;;;;;;;14.38;6.55;;;9.60;68.80;;;8.43;60.39;101700.53;4996700;28;20051;-82
2021/04/24 07:06:52;;;;;;;15.13;6.57;;;9.60;68.60;;;8.50;60.91;101703.56;4997782;28;20081;-82
2021/04/24 07:09:19;;;;;;;15.60;6.68;;;9.70;69.10;;;8.57;61.58;101702.00;4997879;28;20500;-83
2021/04/24 07:11:46;;;;;;;15.00;6.63;;;9.70;69.20;;;8.61;60.87;101706.97;4998436;28;20104;-82
2021/04/24 07:14:13;;;;;;;14.95;6.60;;;9.70;68.90;;;8.66;61.00;101705.69;4997386;28;20555;-83
2021/04/24 07:16:40;;;;;;;15.35;6.50;;;9.70;69.40;;;8.69;61.20;101711.69;4996686;28;20073;-82
2021/04/24 07:19:06;;;;;;;16.35;5.95;;;9.70;69.30;;;8.71;60.94;101708.84;4997916;28;20042;-84
2021/04/24 07:21:34;;;;;;;12.10;5.30;;;9.70;69.20;;;8.71;60.12;101709.69;4998807;28;20740;-82
2021/04/24 07:24:01;;;;;;;12.50;5.47;;;9.60;68.80;;;8.68;59.87;101717.25;4997964;28;20097;-83
2021/04/24 07:26:27;;;;;;;10.90;5.20;;;9.60;68.60;;;8.70;59.18;101712.53;4997131;28;20050;-82
2021/04/24 07:28:54;;;;;;;13.68;5.53;;;9.60;68.40;;;8.68;58.58;101715.44;4997808;28;20104;-83
2021/04/24 07:31:21;;;;;;;12.27;4.82;;;9.50;69.00;;;8.69;59.36;101714.41;4997515;28;20132;-82
2021/04/24 07:33:48;;;;;;;13.73;4.80;;;9.50;69.30;;;8.69;59.27;101708.97;4995458;28;20132;-82
2021/04/24 07:36:15;;;;;;;11.57;5.75;;;9.60;69.00;;;8.76;59.07;101706.56;4996924;28;20569;-82
2021/04/24 07:38:42;;;;;;;12.77;5.25;;;9.60;68.80;;;8.80;59.54;101695.25;4997430;28;20109;-83
2021/04/24 07:41:09;;;;;;;13.13;5.22;;;9.70;69.10;;;8.83;58.04;101707.69;4998588;28;20066;-83
2021/04/24 07:43:36;;;;;;;9.63;4.50;;;9.70;67.80;;;8.87;57.71;101709.13;4994883;28;20077;-81
2021/04/24 07:46:03;;;;;;;11.13;4.38;;;9.70;67.00;;;8.92;58.21;101705.97;4997637;28;20050;-81
2021/04/24 07:48:31;;;;;;;13.52;4.90;;;9.70;67.80;;;8.96;57.93;101704.69;4997399;28;20050;-81
2021/04/24 07:50:58;;;;;;;11.70;4.80;;;9.80;67.30;;;8.97;58.16;101709.13;4997640;28;20467;-81
2021/04/24 07:53:25;;;;;;;9.68;4.47;;;9.80;67.40;;;8.96;57.18;101713.66;5001821;28;20120;-80
2021/04/24 07:55:52;;;;;;;10.00;4.40;;;9.80;66.60;;;8.99;56.97;101702.53;5004006;28;20042;-81
2021/04/24 07:58:19;;;;;;;10.80;4.18;;;9.90;66.30;;;9.01;56.49;101699.69;4997568;28;20042;-81
2021/04/24 08:00:46;;;;;;;9.55;4.53;;;9.90;65.30;;;9.08;56.73;101702.66;4996251;28;20053;-81
2021/04/24 08:03:13;;;;;;;13.27;4.50;;;9.90;66.80;;;9.06;55.98;101704.66;4995365;28;20054;-83
2021/04/24 08:05:39;;;;;;;9.73;4.20;;;9.90;65.40;;;9.10;56.13;101698.81;4997119;28;20069;-81
2021/04/24 08:08:07;;;;;;;13.57;4.90;;;9.90;65.40;;;9.13;55.82;101697.66;4997347;28;20050;-81
2021/04/24 08:10:33;;;;;;;10.30;4.07;;;10.00;65.20;;;9.15;55.19;101699.22;4995521;28;20513;-82
2021/04/24 08:13:03;;;;;;;14.68;4.72;;;10.00;64.40;;;9.17;55.24;101693.63;4995834;28;20086;-80
2021/04/24 08:15:30;;;;;;;10.40;3.90;;;10.00;64.80;;;9.21;55.06;101692.34;4996766;28;20054;-80
2021/04/24 08:17:57;;;;;;;10.02;3.90;;;10.00;64.50;;;9.28;56.03;101677.16;4996131;28;20082;-81
2021/04/24 08:20:25;;;;;;;13.18;3.92;;;10.10;65.40;;;9.31;55.91;101698.63;4996641;28;20057;-81
2021/04/24 08:22:52;;;;;;;9.15;4.13;;;10.20;64.70;;;9.31;55.04;101682.31;4996004;28;20239;-81
2021/04/24 08:25:19;;;;;;;11.15;4.22;;;10.30;63.40;;;9.35;54.82;101683.72;4996080;28;20073;-80
2021/04/24 08:27:46;;;;;;;10.93;4.35;;;10.30;63.40;;;9.45;56.18;101691.00;4997057;28;20070;-79
2021/04/24 08:30:16;;;;;;;10.40;4.38;;;10.50;64.90;;;9.52;55.95;101697.53;5013967;28;20041;-80
2021/04/24 08:32:45;;;;;;;9.20;4.18;;;10.60;63.40;;;9.54;55.60;101696.41;4994811;28;20038;-81
2021/04/24 08:35:13;;;;;;;8.95;4.10;;;10.70;63.90;;;9.53;54.24;101688.38;4997440;28;20117;-81
2021/04/24 08:37:40;;;;;;;9.80;4.47;;;10.60;61.00;;;9.55;54.54;101691.81;4995276;28;20046;-80
2021/04/24 08:40:10;;;;;;;9.35;3.75;;;10.60;62.00;;;9.56;54.69;101693.53;4995489;28;20454;-80
2021/04/24 08:42:38;;;;;;;9.52;4.13;;;10.60;62.10;;;9.61;55.08;101693.06;4994480;28;20046;-80
2021/04/24 08:45:14;;;;;;;20.65;6.45;;;10.60;62.30;;;9.62;54.61;101697.53;4994440;28;20125;-80
2021/04/24 08:47:46;;;;;;;11.07;4.22;;;10.70;62.70;;;9.63;53.55;101701.94;4995176;28;20161;-80
2021/04/24 08:50:17;;;;;;;9.70;4.68;;;10.70;62.20;;;9.61;52.77;101696.63;4994785;28;20053;-80
2021/04/24 08:52:44;;;;;;;11.65;4.68;;;10.60;58.90;;;9.59;52.56;101710.41;4993897;28;20074;-80
2021/04/24 08:55:18;;;;;;;10.23;4.55;;;10.60;59.50;;;9.61;53.23;101687.63;4994719;28;20062;-80
2021/04/24 08:57:46;;;;;;;9.18;4.78;;;10.60;59.70;;;9.63;53.83;101683.75;4995231;28;20077;-80
2021/04/24 09:00:16;;;;;;;12.30;4.88;;;10.60;60.10;;;9.64;54.61;101685.47;4994169;28;20054;-80
2021/04/24 09:02:46;;;;;;;12.60;4.70;;;10.70;61.00;;;9.67;53.82;101679.75;4995408;28;20041;-80
2021/04/24 09:05:18;;;;;;;11.38;4.43;;;10.70;60.10;;;9.66;52.84;101678.03;4995551;28;20034;-81
2021/04/24 09:07:45;;;;;;;9.25;4.25;;;10.70;59.50;;;9.67;52.73;101681.59;4995111;28;20070;-81
2021/04/24 09:10:16;;;;;;;13.52;5.70;;;10.60;59.20;;;9.67;53.27;101674.31;4995476;28;20130;-80
2021/04/24 09:12:46;;;;;;;14.57;5.65;;;10.50;60.50;;;9.67;53.42;101679.75;4994435;28;20415;-81
2021/04/24 09:15:19;;;;;;;11.27;4.50;;;10.60;60.20;;;9.68;53.07;101670.56;4994537;28;20530;-81
2021/04/24 09:18:01;;;;;;;9.48;3.70;;;10.60;59.80;;;9.73;52.70;101681.88;4995390;28;20045;-81
2021/04/24 09:20:31;;;;;;;8.23;4.47;;;10.60;59.40;;;9.73;52.43;101673.72;4994616;28;20049;-80
2021/04/24 09:23:08;;;;;;;9.18;4.20;;;10.60;59.60;;;9.79;53.22;101681.25;4993966;28;20488;-80
2021/04/24 09:25:40;;;;;;;7.55;3.90;;;10.70;60.10;;;9.79;53.78;101675.81;4994942;28;20058;-80
2021/04/24 09:28:10;;;;;;;11.65;3.65;;;10.80;60.50;;;9.86;54.65;101675.22;4994618;28;20742;-80
2021/04/24 09:30:40;;;;;;;8.98;4.20;;;10.90;61.20;;;9.88;53.64;101673.19;4994368;28;20152;-82
2021/04/24 09:33:13;;;;;;;7.93;3.70;;;10.90;60.00;;;9.86;52.53;101664.34;4994225;28;20061;-81
2021/04/24 09:35:48;;;;;;;10.65;3.85;;;10.90;58.60;;;9.88;52.79;101665.91;4995395;28;20126;-80
2021/04/24 09:38:28;;;;;;;8.52;3.90;;;11.00;59.10;;;9.93;52.87;101662.72;4994312;28;20084;-81
2021/04/24 09:41:15;;;;;;;10.60;3.97;;;11.10;58.60;;;9.99;52.68;101664.81;4994895;28;20057;-80
2021/04/24 09:44:03;;;;;;;9.48;3.80;;;11.30;57.80;;;10.06;52.91;101663.22;4993486;28;20062;-80
2021/04/24 09:46:34;;;;;;;8.75;3.60;;;11.50;57.80;;;10.07;52.71;101659.50;4994640;28;20062;-80
2021/04/24 09:49:24;;;;;;;6.80;3.07;;;11.60;56.40;;;10.12;51.40;101665.31;4994477;28;20058;-80
2021/04/24 09:51:53;;;;;;;7.45;3.10;;;11.70;54.80;;;10.17;52.33;101663.00;4994541;28;20380;-80
2021/04/24 09:54:22;;;;;;;6.43;3.28;;;11.80;55.90;;;10.21;51.38;101665.44;4993483;28;20049;-81
2021/04/24 09:57:00;;;;;;;7.40;3.65;;;11.80;54.90;;;10.27;53.37;101659.34;4994519;28;20626;-81
2021/04/24 09:59:27;;;;;;;9.23;3.42;;;11.90;56.90;;;10.28;51.98;101651.06;4994033;28;20391;-80
2021/04/24 10:02:00;;;;;;;6.47;3.72;;;12.00;55.40;;;10.31;51.44;101653.47;4994546;28;20149;-81
2021/04/24 10:04:30;;;;;;;11.02;3.65;;;12.00;54.90;;;10.35;51.85;101656.75;4993439;28;20090;-83
2021/04/24 10:06:57;;;;;;;8.27;3.58;;;12.00;55.10;;;10.39;51.59;101654.56;4996011;28;20053;-85
2021/04/24 10:09:29;;;;;;;7.60;3.53;;;12.10;55.00;;;10.41;51.80;101650.66;4995837;28;20073;-81
2021/04/24 10:12:11;;;;;;;8.70;3.38;;;12.10;55.00;;;10.41;50.05;101647.94;4995148;28;20050;-81
2021/04/24 10:14:43;;;;;;;7.75;3.00;;;12.00;53.10;;;10.47;51.17;101644.63;4994192;28;20073;-81
2021/04/24 10:17:11;;;;;;;;;;;12.10;54.80;;;10.50;50.43;101640.72;4995082;28;20141;-81
2021/04/24 10:19:41;;;;;;;8.77;3.60;;;12.20;53.80;;;10.51;51.02;101635.13;4995189;28;20012;-81
2021/04/24 10:22:10;;;;;;;6.47;3.38;;;12.20;54.00;;;10.54;50.98;101645.69;4994423;28;20042;-81
2021/04/24 10:24:38;;;;;;;7.47;3.10;;;12.20;54.00;;;10.55;50.29;101641.13;4995993;28;20046;-81
2021/04/24 10:27:06;;;;;;;8.20;2.95;;;12.20;53.40;;;10.61;49.87;101637.75;4997157;28;20054;-80